createdAt,value
2022-11-29T00:00:29.553Z,-0.19
2022-11-29T00:03:21.162Z,-0.23
2022-11-29T00:05:53.342Z,-0.25
2022-11-29T00:08:26.206Z,-0.26
2022-11-29T00:10:57.696Z,-0.29
2022-11-29T00:13:29.219Z,-0.32
2022-11-29T00:16:05.154Z,-0.35
2022-11-29T00:18:37.171Z,-0.35
2022-11-29T00:21:10.427Z,-0.37
2022-11-29T00:23:41.953Z,-0.38
2022-11-29T00:26:13.792Z,-0.41
2022-11-29T00:28:45.485Z,-0.42
2022-11-29T00:31:19.667Z,-0.44
2022-11-29T00:33:52.179Z,-0.46
2022-11-29T00:36:23.851Z,-0.47
2022-11-29T00:38:55.665Z,-0.47
2022-11-29T00:41:27.579Z,-0.49
2022-11-29T00:43:59.081Z,-0.51
2022-11-29T00:46:30.600Z,-0.53
2022-11-29T00:49:02.137Z,-0.55
2022-11-29T00:51:33.797Z,-0.55
2022-11-29T00:54:05.920Z,-0.56
2022-11-29T00:56:37.436Z,-0.56
2022-11-29T00:59:10.030Z,-0.57
2022-11-29T01:01:41.709Z,-0.61
2022-11-29T01:04:13.532Z,-0.63
2022-11-29T01:06:45.157Z,-0.66
2022-11-29T01:09:16.728Z,-0.71
2022-11-29T01:11:50.058Z,-0.74
2022-11-29T01:14:21.656Z,-0.77
2022-11-29T01:16:53.218Z,-0.80
2022-11-29T01:19:24.896Z,-0.82
2022-11-29T01:21:56.537Z,-0.84
2022-11-29T01:24:29.701Z,-0.88
2022-11-29T01:27:01.513Z,-0.90
2022-11-29T01:29:33.024Z,-0.92
2022-11-29T01:32:04.837Z,-0.93
2022-11-29T01:34:36.330Z,-0.97
2022-11-29T01:37:08.243Z,-1.04
2022-11-29T01:39:40.461Z,-1.05
2022-11-29T01:42:14.476Z,-1.07
2022-11-29T01:45:05.916Z,-1.10
2022-11-29T01:47:43.065Z,-1.12
2022-11-29T01:50:15.190Z,-1.15
2022-11-29T01:52:47.245Z,-1.18
2022-11-29T01:55:19.606Z,-1.19
2022-11-29T01:57:51.539Z,-1.18
2022-11-29T02:00:24.198Z,-1.19
2022-11-29T02:02:59.919Z,-1.20
2022-11-29T02:05:31.913Z,-1.20
2022-11-29T02:08:04.089Z,-1.21
2022-11-29T02:10:47.960Z,-1.23
2022-11-29T02:13:33.824Z,-1.24
2022-11-29T02:16:13.104Z,-1.23
2022-11-29T02:18:54.869Z,-1.23
2022-11-29T02:21:41.121Z,-1.24
2022-11-29T02:24:51.071Z,-1.28
2022-11-29T02:27:59.422Z,-1.29
2022-11-29T02:31:05.073Z,-1.29
2022-11-29T02:33:57.214Z,-1.31
2022-11-29T02:36:52.195Z,-1.31
2022-11-29T02:39:44.247Z,-1.36
2022-11-29T02:42:54.062Z,-1.37
2022-11-29T02:46:02.883Z,-1.37
2022-11-29T02:48:53.157Z,-1.37
2022-11-29T02:51:32.039Z,-1.40
2022-11-29T02:54:10.034Z,-1.42
2022-11-29T02:56:47.550Z,-1.42
2022-11-29T02:59:35.176Z,-1.42
2022-11-29T03:02:18.572Z,-1.42
2022-11-29T03:04:56.638Z,-1.46
2022-11-29T03:07:41.532Z,-1.46
2022-11-29T03:10:23.825Z,-1.46
2022-11-29T03:12:59.134Z,-1.48
2022-11-29T03:15:34.999Z,-1.50
2022-11-29T03:18:26.079Z,-1.54
2022-11-29T03:21:10.873Z,-1.59
2022-11-29T03:23:48.270Z,-1.62
2022-11-29T03:26:25.426Z,-1.65
2022-11-29T03:29:07.240Z,-1.66
2022-11-29T03:31:45.637Z,-1.68
2022-11-29T03:34:26.520Z,-1.70
2022-11-29T03:37:03.685Z,-1.71
2022-11-29T03:39:46.340Z,-1.71
2022-11-29T03:42:25.609Z,-1.74
2022-11-29T03:45:04.299Z,-1.74
2022-11-29T03:47:43.132Z,-1.75
2022-11-29T03:50:20.159Z,-1.75
2022-11-29T03:52:55.991Z,-1.76
2022-11-29T03:55:49.883Z,-1.78
2022-11-29T03:58:48.093Z,-1.79
2022-11-29T04:01:38.743Z,-1.79
2022-11-29T04:04:52.233Z,-1.79
2022-11-29T04:07:45.311Z,-1.81
2022-11-29T04:10:42.207Z,-1.79
2022-11-29T04:13:35.538Z,-1.81
2022-11-29T04:16:27.642Z,-1.86
2022-11-29T04:19:25.513Z,-1.91
2022-11-29T04:22:20.473Z,-1.90
2022-11-29T04:25:30.183Z,-1.89
2022-11-29T04:28:28.716Z,-1.90
2022-11-29T04:31:11.536Z,-1.91
2022-11-29T04:37:27.248Z,-1.92
2022-11-29T04:40:27.288Z,-1.95
2022-11-29T04:43:23.589Z,-1.96
2022-11-29T04:46:12.406Z,-1.98
2022-11-29T04:49:03.059Z,-2.03
2022-11-29T04:51:48.057Z,-2.04
2022-11-29T04:54:28.161Z,-2.04
2022-11-29T04:57:08.424Z,-2.06
2022-11-29T04:59:45.196Z,-2.08
2022-11-29T05:02:33.444Z,-2.09
2022-11-29T05:05:15.248Z,-2.11
2022-11-29T05:07:59.387Z,-2.11
2022-11-29T05:10:36.210Z,-2.11
2022-11-29T05:13:14.273Z,-2.13
2022-11-29T05:16:03.821Z,-2.14
2022-11-29T05:19:00.260Z,-2.17
2022-11-29T05:21:43.855Z,-2.18
2022-11-29T05:24:28.833Z,-2.18
2022-11-29T05:27:09.910Z,-2.18
2022-11-29T05:29:49.089Z,-2.16
2022-11-29T05:32:32.967Z,-2.17
2022-11-29T05:35:30.472Z,-2.16
2022-11-29T05:38:09.965Z,-2.17
2022-11-29T05:40:58.792Z,-2.17
2022-11-29T05:43:57.105Z,-2.17
2022-11-29T05:46:37.246Z,-2.19
2022-11-29T05:49:23.052Z,-2.19
2022-11-29T05:52:04.460Z,-2.21
2022-11-29T05:54:42.569Z,-2.21
2022-11-29T05:57:26.001Z,-2.21
2022-11-29T06:00:00.333Z,-2.20
2022-11-29T06:02:44.449Z,-2.21
2022-11-29T06:05:25.542Z,-2.24
2022-11-29T06:08:04.732Z,-2.20
2022-11-29T06:10:39.978Z,-2.19
2022-11-29T06:13:23.096Z,-2.21
2022-11-29T06:16:25.045Z,-2.22
2022-11-29T06:19:41.604Z,-2.22
2022-11-29T06:22:30.403Z,-2.23
2022-11-29T06:25:20.458Z,-2.24
2022-11-29T06:28:10.075Z,-2.25
2022-11-29T06:30:59.363Z,-2.25
2022-11-29T06:33:40.815Z,-2.24
2022-11-29T06:36:19.864Z,-2.21
2022-11-29T06:38:52.277Z,-2.18
2022-11-29T06:41:26.329Z,-2.16
2022-11-29T06:43:59.349Z,-2.14
2022-11-29T06:46:44.931Z,-2.12
2022-11-29T06:49:25.090Z,-2.10
2022-11-29T06:52:09.532Z,-2.09
2022-11-29T06:55:11.605Z,-2.06
2022-11-29T06:58:01.983Z,-1.99
2022-11-29T07:00:44.561Z,-1.92
2022-11-29T07:03:30.794Z,-1.89
2022-11-29T07:06:17.143Z,-1.84
2022-11-29T07:08:50.168Z,-1.78
2022-11-29T07:11:23.324Z,-1.71
2022-11-29T07:13:56.226Z,-1.66
2022-11-29T07:16:33.040Z,-1.61
2022-11-29T07:19:14.131Z,-1.55
2022-11-29T07:22:04.219Z,-1.49
2022-11-29T07:24:54.732Z,-1.41
2022-11-29T07:27:33.789Z,-1.34
2022-11-29T07:30:13.788Z,-1.27
2022-11-29T07:33:00.261Z,-1.19
2022-11-29T07:35:42.512Z,-1.11
2022-11-29T07:38:25.018Z,-1.00
2022-11-29T07:41:01.997Z,-0.90
2022-11-29T07:43:46.487Z,-0.72
2022-11-29T07:46:18.035Z,-0.31
2022-11-29T07:48:49.614Z,-0.06
2022-11-29T07:51:21.212Z,0.01
2022-11-29T07:53:52.742Z,0.08
2022-11-29T07:56:24.330Z,0.15
2022-11-29T07:58:55.873Z,0.23
2022-11-29T08:01:27.649Z,0.33
2022-11-29T08:03:59.399Z,0.42
2022-11-29T08:06:31.337Z,0.52
2022-11-29T08:09:03.672Z,0.65
2022-11-29T08:11:35.317Z,0.76
2022-11-29T08:14:06.964Z,0.91
2022-11-29T08:16:38.683Z,1.28
2022-11-29T08:19:10.692Z,1.94
2022-11-29T08:21:43.720Z,2.85
2022-11-29T08:24:15.411Z,3.76
2022-11-29T08:26:47.390Z,4.37
2022-11-29T08:29:19.972Z,4.66
2022-11-29T08:31:54.677Z,5.08
2022-11-29T08:34:27.154Z,5.49
2022-11-29T08:36:58.754Z,5.53
2022-11-29T08:39:30.491Z,5.62
2022-11-29T08:42:02.139Z,6.04
2022-11-29T08:44:33.708Z,6.31
2022-11-29T08:47:23.065Z,6.48
2022-11-29T08:50:04.041Z,6.57
2022-11-29T08:52:55.193Z,6.68
2022-11-29T08:55:29.620Z,6.82
2022-11-29T08:58:05.881Z,6.94
2022-11-29T09:00:38.705Z,7.08
2022-11-29T09:03:28.459Z,7.05
2022-11-29T09:06:00.444Z,6.76
2022-11-29T09:08:31.999Z,6.43
2022-11-29T09:11:14.326Z,6.20
2022-11-29T09:13:50.206Z,6.01
2022-11-29T09:16:25.191Z,6.09
2022-11-29T09:18:57.514Z,6.24
2022-11-29T09:21:30.962Z,6.08
2022-11-29T09:24:06.361Z,5.77
2022-11-29T09:26:40.767Z,5.48
2022-11-29T09:29:14.233Z,5.13
2022-11-29T09:31:46.197Z,4.86
2022-11-29T09:34:19.414Z,4.67
2022-11-29T09:36:50.986Z,4.49
2022-11-29T09:39:23.165Z,4.41
2022-11-29T09:42:10.023Z,4.30
2022-11-29T09:44:52.241Z,4.10
2022-11-29T09:47:39.562Z,3.99
2022-11-29T09:50:29.978Z,3.92
2022-11-29T09:53:26.089Z,3.80
2022-11-29T09:56:06.033Z,3.64
2022-11-29T09:58:44.765Z,3.62
2022-11-29T10:01:26.035Z,3.60
2022-11-29T10:04:01.938Z,3.63
2022-11-29T10:06:39.296Z,3.78
2022-11-29T10:09:22.088Z,4.29
2022-11-29T10:12:06.973Z,4.92
2022-11-29T10:14:43.886Z,5.26
2022-11-29T10:17:26.177Z,5.54
2022-11-29T10:20:04.312Z,5.45
2022-11-29T10:22:44.916Z,5.43
2022-11-29T10:25:24.280Z,5.55
2022-11-29T10:27:56.772Z,5.77
2022-11-29T10:30:28.543Z,6.12
2022-11-29T10:33:02.752Z,6.44
2022-11-29T10:35:35.744Z,6.68
2022-11-29T10:38:29.830Z,6.95
2022-11-29T10:41:05.870Z,7.12
2022-11-29T10:43:38.618Z,7.29
2022-11-29T10:46:19.350Z,7.49
2022-11-29T10:48:51.082Z,7.75
2022-11-29T10:51:22.952Z,7.91
2022-11-29T10:53:55.689Z,7.97
2022-11-29T10:56:35.454Z,7.93
2022-11-29T10:59:12.038Z,7.67
2022-11-29T11:01:45.132Z,7.35
2022-11-29T11:04:25.941Z,7.14
2022-11-29T11:07:01.252Z,6.89
2022-11-29T11:09:36.783Z,6.61
2022-11-29T11:12:20.411Z,6.54
2022-11-29T11:14:52.155Z,6.69
2022-11-29T11:17:27.201Z,6.90
2022-11-29T11:20:02.069Z,7.19
2022-11-29T11:22:36.360Z,7.54
2022-11-29T11:25:25.363Z,7.56
2022-11-29T11:27:58.723Z,7.59
2022-11-29T11:30:31.375Z,7.65
2022-11-29T11:33:20.528Z,7.54
2022-11-29T11:36:13.244Z,7.30
2022-11-29T11:38:53.723Z,7.06
2022-11-29T11:41:42.324Z,6.93
2022-11-29T11:44:46.581Z,6.78
2022-11-29T11:47:21.979Z,6.58
2022-11-29T11:50:08.038Z,6.62
2022-11-29T11:52:50.389Z,6.65
2022-11-29T11:55:33.601Z,6.85
2022-11-29T11:58:16.282Z,6.93
2022-11-29T12:01:06.758Z,6.88
2022-11-29T12:04:01.554Z,6.65
2022-11-29T12:06:41.483Z,6.48
2022-11-29T12:09:24.368Z,6.39
2022-11-29T12:12:07.197Z,6.28
2022-11-29T12:14:47.405Z,6.18
2022-11-29T12:17:27.789Z,6.08
2022-11-29T12:20:11.576Z,5.96
2022-11-29T12:22:48.733Z,5.88
2022-11-29T12:25:26.118Z,5.79
2022-11-29T12:27:57.666Z,5.77
2022-11-29T12:30:29.408Z,5.76
2022-11-29T12:33:26.271Z,5.79
2022-11-29T12:36:14.934Z,5.84
2022-11-29T12:39:04.380Z,5.83
2022-11-29T12:41:50.941Z,5.82
2022-11-29T12:44:44.567Z,5.83
2022-11-29T12:47:41.650Z,5.83
2022-11-29T12:50:34.389Z,5.84
2022-11-29T12:53:27.108Z,5.81
2022-11-29T12:56:08.378Z,5.77
2022-11-29T12:58:53.234Z,5.74
2022-11-29T13:01:31.624Z,5.72
2022-11-29T13:04:14.852Z,5.68
2022-11-29T13:06:56.695Z,5.64
2022-11-29T13:09:53.825Z,5.63
2022-11-29T13:12:35.011Z,5.60
2022-11-29T13:15:12.946Z,5.57
2022-11-29T13:17:50.769Z,5.53
2022-11-29T13:20:37.285Z,5.51
2022-11-29T13:23:18.345Z,5.51
2022-11-29T13:25:52.377Z,5.51
2022-11-29T13:28:27.755Z,5.50
2022-11-29T13:31:03.525Z,5.48
2022-11-29T13:33:43.617Z,5.48
2022-11-29T13:36:22.837Z,5.49
2022-11-29T13:39:06.608Z,5.49
2022-11-29T13:41:47.665Z,5.48
2022-11-29T13:44:27.341Z,5.42
2022-11-29T13:47:07.323Z,5.33
2022-11-29T13:49:57.180Z,5.26
2022-11-29T13:52:39.388Z,5.20
2022-11-29T13:55:29.051Z,5.13
2022-11-29T13:58:17.489Z,5.09
2022-11-29T14:00:53.550Z,5.04
2022-11-29T14:03:35.536Z,5.00
2022-11-29T14:06:11.875Z,4.96
2022-11-29T14:09:24.493Z,4.92
2022-11-29T14:12:04.167Z,4.87
2022-11-29T14:14:42.886Z,4.83
2022-11-29T14:17:35.004Z,4.80
2022-11-29T14:20:41.172Z,4.75
2022-11-29T14:23:31.582Z,4.73
2022-11-29T14:26:29.988Z,4.68
2022-11-29T14:29:01.916Z,4.62
2022-11-29T14:31:56.456Z,4.59
2022-11-29T14:34:48.103Z,4.53
2022-11-29T14:37:35.787Z,4.48
2022-11-29T14:40:22.371Z,4.41
2022-11-29T14:42:54.829Z,4.36
2022-11-29T14:45:30.437Z,4.33
2022-11-29T14:48:02.884Z,4.31
2022-11-29T14:50:40.609Z,4.28
2022-11-29T14:53:31.291Z,4.21
2022-11-29T14:56:35.056Z,4.13
2022-11-29T14:59:53.101Z,4.06
2022-11-29T15:02:32.395Z,3.98
2022-11-29T15:05:17.011Z,3.90
2022-11-29T15:07:52.560Z,3.82
2022-11-29T15:10:30.790Z,3.76
2022-11-29T15:13:05.032Z,3.69
2022-11-29T15:15:54.146Z,3.63
2022-11-29T15:18:41.673Z,3.60
2022-11-29T15:21:27.807Z,3.54
2022-11-29T15:24:10.593Z,3.45
2022-11-29T15:26:55.271Z,3.35
2022-11-29T15:29:27.789Z,3.23
2022-11-29T15:32:02.817Z,3.15
2022-11-29T15:34:40.185Z,3.13
2022-11-29T15:37:22.010Z,3.10
2022-11-29T15:40:06.448Z,3.04
2022-11-29T15:42:47.283Z,2.99
2022-11-29T15:45:32.329Z,2.94
2022-11-29T15:48:20.599Z,2.88
2022-11-29T15:51:01.741Z,2.85
2022-11-29T15:53:39.073Z,2.82
2022-11-29T15:56:17.742Z,2.77
2022-11-29T15:58:51.418Z,2.69
2022-11-29T16:01:22.301Z,2.59
2022-11-29T16:03:56.685Z,2.49
2022-11-29T16:06:33.233Z,2.40
2022-11-29T16:09:07.179Z,2.31
2022-11-29T16:11:40.388Z,2.24
2022-11-29T16:14:23.179Z,2.11
2022-11-29T16:16:56.366Z,2.00
2022-11-29T16:19:35.551Z,1.86
2022-11-29T16:22:15.392Z,1.72
2022-11-29T16:25:01.009Z,1.61
2022-11-29T16:27:35.335Z,1.55
2022-11-29T16:30:18.064Z,1.48
2022-11-29T16:32:55.022Z,1.47
2022-11-29T16:35:30.070Z,1.43
2022-11-29T16:38:04.248Z,1.40
2022-11-29T16:40:37.288Z,1.34
2022-11-29T16:43:24.016Z,1.29
2022-11-29T16:46:30.157Z,1.22
2022-11-29T16:49:04.677Z,1.12
2022-11-29T16:51:43.940Z,1.03
2022-11-29T16:54:25.094Z,1.02
2022-11-29T16:56:59.046Z,0.96
2022-11-29T16:59:32.046Z,0.91
2022-11-29T17:02:03.664Z,0.91
2022-11-29T17:04:35.404Z,0.91
2022-11-29T17:07:09.368Z,0.91
2022-11-29T17:09:41.364Z,0.91
2022-11-29T17:12:14.638Z,0.87
2022-11-29T17:14:46.360Z,0.83
2022-11-29T17:17:19.303Z,0.81
2022-11-29T17:19:50.840Z,0.83
2022-11-29T17:22:22.394Z,0.83
2022-11-29T17:24:54.511Z,0.82
2022-11-29T17:27:26.294Z,0.80
2022-11-29T17:29:57.929Z,0.80
2022-11-29T17:32:29.556Z,0.79
2022-11-29T17:35:01.057Z,0.80
2022-11-29T17:37:32.987Z,0.82
2022-11-29T17:40:07.126Z,0.83
2022-11-29T17:42:39.485Z,0.84
2022-11-29T17:45:12.552Z,0.84
2022-11-29T17:47:44.204Z,0.82
2022-11-29T17:50:16.012Z,0.79
2022-11-29T17:52:47.590Z,0.77
2022-11-29T17:55:20.786Z,0.75
2022-11-29T17:57:52.813Z,0.72
2022-11-29T18:00:27.018Z,0.72
2022-11-29T18:02:58.553Z,0.73
2022-11-29T18:05:34.527Z,0.74
2022-11-29T18:08:06.873Z,0.76
2022-11-29T18:10:38.422Z,0.71
2022-11-29T18:13:10.003Z,0.67
2022-11-29T18:15:41.489Z,0.64
2022-11-29T18:18:13.259Z,0.63
2022-11-29T18:20:44.795Z,0.57
2022-11-29T18:23:16.397Z,0.59
2022-11-29T18:25:57.617Z,0.58
2022-11-29T18:28:30.830Z,0.57
2022-11-29T18:31:06.912Z,0.55
2022-11-29T18:33:39.196Z,0.53
2022-11-29T18:36:13.723Z,0.51
2022-11-29T18:38:46.946Z,0.52
2022-11-29T18:41:21.280Z,0.54
2022-11-29T18:43:59.027Z,0.55
2022-11-29T18:46:32.700Z,0.57
2022-11-29T18:49:07.049Z,0.54
2022-11-29T18:51:39.919Z,0.49
2022-11-29T18:54:11.648Z,0.51
2022-11-29T18:56:44.224Z,0.53
2022-11-29T18:59:17.904Z,0.55
2022-11-29T19:01:50.273Z,0.57
2022-11-29T19:04:22.822Z,0.58
2022-11-29T19:06:54.426Z,0.60
2022-11-29T19:09:26.093Z,0.62
2022-11-29T19:11:57.610Z,0.62
2022-11-29T19:14:30.461Z,0.63
2022-11-29T19:17:02.327Z,0.63
2022-11-29T19:19:33.937Z,0.63
2022-11-29T19:22:05.473Z,0.66
2022-11-29T19:24:37.181Z,0.69
2022-11-29T19:27:08.718Z,0.71
2022-11-29T19:29:40.231Z,0.73
2022-11-29T19:32:11.793Z,0.75
2022-11-29T19:34:43.398Z,0.77
2022-11-29T19:37:14.888Z,0.80
2022-11-29T19:39:46.627Z,0.83
2022-11-29T19:42:18.446Z,0.83
2022-11-29T19:47:41.822Z,0.85
2022-11-29T19:50:13.797Z,0.87
2022-11-29T19:52:45.342Z,0.89
2022-11-29T19:55:18.093Z,0.86
2022-11-29T19:57:49.757Z,0.87
2022-11-29T20:00:22.987Z,0.89
2022-11-29T20:02:54.757Z,0.90
2022-11-29T20:05:27.332Z,0.91
2022-11-29T20:07:59.035Z,0.96
2022-11-29T20:10:30.848Z,1.03
2022-11-29T20:13:02.481Z,1.08
2022-11-29T20:15:34.209Z,1.12
2022-11-29T20:18:06.810Z,1.15
2022-11-29T20:20:38.356Z,1.17
2022-11-29T20:23:09.857Z,1.20
2022-11-29T20:25:41.360Z,1.23
2022-11-29T20:28:12.898Z,1.25
2022-11-29T20:30:46.494Z,1.25
2022-11-29T20:33:22.087Z,1.24
2022-11-29T20:36:00.642Z,1.23
2022-11-29T20:38:42.425Z,1.19
2022-11-29T20:41:20.520Z,1.16
2022-11-29T20:43:57.510Z,1.13
2022-11-29T20:46:29.995Z,1.12
2022-11-29T20:49:06.777Z,1.10
2022-11-29T20:51:44.944Z,1.06
2022-11-29T20:54:17.177Z,1.03
2022-11-29T20:56:48.986Z,1.03
2022-11-29T20:59:24.660Z,0.98
2022-11-29T21:01:57.596Z,0.91
2022-11-29T21:04:29.232Z,0.83
2022-11-29T21:07:00.845Z,0.78
2022-11-29T21:09:32.339Z,0.75
2022-11-29T21:12:05.071Z,0.74
2022-11-29T21:14:37.886Z,0.68
2022-11-29T21:17:11.436Z,0.66
2022-11-29T21:19:42.256Z,0.64
2022-11-29T21:22:21.813Z,0.62
2022-11-29T21:25:04.470Z,0.64
2022-11-29T21:27:37.520Z,0.67
2022-11-29T21:30:17.860Z,0.70
2022-11-29T21:32:50.743Z,0.68
2022-11-29T21:35:22.295Z,0.68
2022-11-29T21:37:55.547Z,0.65
2022-11-29T21:40:27.079Z,0.62
2022-11-29T21:42:58.880Z,0.60
2022-11-29T21:45:30.688Z,0.60
2022-11-29T21:48:03.442Z,0.61
2022-11-29T21:50:34.909Z,0.65
2022-11-29T21:53:06.374Z,0.66
2022-11-29T21:55:37.898Z,0.67
2022-11-29T21:58:09.417Z,0.64
2022-11-29T22:00:40.941Z,0.62
2022-11-29T22:03:12.428Z,0.57
2022-11-29T22:05:43.914Z,0.51
2022-11-29T22:08:15.427Z,0.50
2022-11-29T22:10:48.080Z,0.46
2022-11-29T22:13:19.651Z,0.39
2022-11-29T22:15:51.264Z,0.40
2022-11-29T22:18:27.024Z,0.42
2022-11-29T22:21:01.989Z,0.46
2022-11-29T22:23:34.128Z,0.50
2022-11-29T22:26:08.121Z,0.51
2022-11-29T22:28:39.662Z,0.54
2022-11-29T22:31:13.372Z,0.58
2022-11-29T22:33:44.937Z,0.56
2022-11-29T22:36:16.549Z,0.53
2022-11-29T22:38:48.060Z,0.51
2022-11-29T22:41:19.924Z,0.51
2022-11-29T22:43:51.446Z,0.55
2022-11-29T22:46:24.749Z,0.56
2022-11-29T22:48:58.372Z,0.52
2022-11-29T22:51:31.503Z,0.50
2022-11-29T22:54:05.465Z,0.48
2022-11-29T22:56:39.642Z,0.46
2022-11-29T22:59:11.692Z,0.47
2022-11-29T23:01:44.942Z,0.49
2022-11-29T23:04:16.466Z,0.53
2022-11-29T23:06:48.540Z,0.53
2022-11-29T23:09:22.393Z,0.53
2022-11-29T23:11:56.223Z,0.56
2022-11-29T23:14:28.031Z,0.55
2022-11-29T23:16:59.584Z,0.50
2022-11-29T23:19:31.152Z,0.51
2022-11-29T23:22:02.661Z,0.55
2022-11-29T23:24:34.169Z,0.55
2022-11-29T23:27:05.772Z,0.53
2022-11-29T23:29:37.301Z,0.53
2022-11-29T23:32:08.858Z,0.50
2022-11-29T23:34:40.411Z,0.46
2022-11-29T23:37:11.934Z,0.40
2022-11-29T23:39:43.429Z,0.38
2022-11-29T23:42:14.910Z,0.39
2022-11-29T23:44:46.591Z,0.37
2022-11-29T23:47:18.598Z,0.37
2022-11-29T23:49:50.125Z,0.39
2022-11-29T23:52:21.689Z,0.40
2022-11-29T23:54:53.160Z,0.39
2022-11-29T23:57:24.692Z,0.39
2022-11-29T23:59:56.213Z,0.39
